createdAt,value
2023-01-18T00:02:11.577Z,66.45
2023-01-18T00:04:41.449Z,74.88
2023-01-18T00:09:39.305Z,72.60
2023-01-18T00:12:08.418Z,80.95
2023-01-18T00:14:37.331Z,67.85
2023-01-18T00:17:06.299Z,69.97
2023-01-18T00:19:35.102Z,69.45
2023-01-18T00:22:05.589Z,67.13
2023-01-18T00:24:34.761Z,70.05
2023-01-18T00:27:03.806Z,70.82
2023-01-18T00:29:33.143Z,69.75
2023-01-18T00:32:02.220Z,78.90
2023-01-18T00:34:30.996Z,83.65
2023-01-18T00:37:00.086Z,76.78
2023-01-18T00:39:30.662Z,82.43
2023-01-18T00:42:17.188Z,70.60
2023-01-18T00:44:46.177Z,77.60
2023-01-18T00:47:15.176Z,70.68
2023-01-18T00:49:44.798Z,70.63
2023-01-18T00:52:13.795Z,65.13
2023-01-18T00:54:44.311Z,69.70
2023-01-18T00:57:13.580Z,65.68
2023-01-18T00:59:42.679Z,60.33
2023-01-18T01:02:11.869Z,66.63
2023-01-18T01:04:57.827Z,64.97
2023-01-18T01:07:27.009Z,60.90
2023-01-18T01:09:58.105Z,61.25
2023-01-18T01:12:44.415Z,66.53
2023-01-18T01:15:30.443Z,64.20
2023-01-18T01:18:16.763Z,61.92
2023-01-18T01:21:02.797Z,60.28
2023-01-18T01:23:49.039Z,60.97
2023-01-18T01:26:19.475Z,56.00
2023-01-18T01:28:51.989Z,55.63
2023-01-18T01:31:21.809Z,56.40
2023-01-18T01:33:50.915Z,57.13
2023-01-18T01:36:21.933Z,54.42
2023-01-18T01:38:51.102Z,59.33
2023-01-18T01:41:25.433Z,59.15
2023-01-18T01:43:55.382Z,56.05
2023-01-18T01:49:06.654Z,54.65
2023-01-18T01:51:37.968Z,52.30
2023-01-18T01:54:10.586Z,57.45
2023-01-18T01:56:41.502Z,49.35
2023-01-18T01:59:11.371Z,56.33
2023-01-18T02:01:43.911Z,50.60
2023-01-18T02:04:13.310Z,55.08
2023-01-18T02:06:42.711Z,58.30
2023-01-18T02:09:14.796Z,49.40
2023-01-18T02:11:45.456Z,48.60
2023-01-18T02:14:17.305Z,50.83
2023-01-18T02:16:56.731Z,50.78
2023-01-18T02:19:46.123Z,49.50
2023-01-18T02:22:22.355Z,47.85
2023-01-18T02:25:18.314Z,48.35
2023-01-18T02:27:52.812Z,46.90
2023-01-18T02:30:27.524Z,48.80
2023-01-18T02:33:03.317Z,47.35
2023-01-18T02:35:39.612Z,49.05
2023-01-18T02:38:11.754Z,44.75
2023-01-18T02:40:48.987Z,48.00
2023-01-18T02:43:36.322Z,45.95
2023-01-18T02:46:25.141Z,44.22
2023-01-18T02:48:54.173Z,39.80
2023-01-18T02:51:23.198Z,42.85
2023-01-18T02:53:52.253Z,44.45
2023-01-18T02:56:25.177Z,43.15
2023-01-18T02:58:58.375Z,45.33
2023-01-18T03:01:31.972Z,44.38
2023-01-18T03:04:03.069Z,45.55
2023-01-18T03:06:32.269Z,42.72
2023-01-18T03:09:01.567Z,43.35
2023-01-18T03:11:39.418Z,46.00
2023-01-18T03:14:15.267Z,44.28
2023-01-18T03:16:58.152Z,45.88
2023-01-18T03:19:55.221Z,46.05
2023-01-18T03:22:44.995Z,45.95
2023-01-18T03:25:16.937Z,46.10
2023-01-18T03:28:05.228Z,42.47
2023-01-18T03:30:52.198Z,41.15
2023-01-18T03:33:41.572Z,46.58
2023-01-18T03:36:12.537Z,38.70
2023-01-18T03:38:43.584Z,38.70
2023-01-18T03:41:13.489Z,41.20
2023-01-18T03:43:43.316Z,31.00
2023-01-18T03:46:13.769Z,40.35
2023-01-18T03:48:44.465Z,40.97
2023-01-18T03:51:19.307Z,39.10
2023-01-18T03:53:53.991Z,39.80
2023-01-18T03:56:27.690Z,34.78
2023-01-18T03:58:59.315Z,36.15
2023-01-18T04:01:28.525Z,36.13
2023-01-18T04:03:58.987Z,26.13
2023-01-18T04:06:28.567Z,34.65
2023-01-18T04:08:58.733Z,34.85
2023-01-18T04:11:27.639Z,32.88
2023-01-18T04:13:56.291Z,34.97
2023-01-18T04:16:25.387Z,35.05
2023-01-18T04:18:54.467Z,28.25
2023-01-18T04:21:25.022Z,27.95
2023-01-18T04:23:54.048Z,29.20
2023-01-18T04:26:23.033Z,30.58
2023-01-18T04:28:51.613Z,27.75
2023-01-18T04:31:20.878Z,27.98
2023-01-18T04:33:51.667Z,27.30
2023-01-18T04:36:20.844Z,28.27
2023-01-18T04:38:54.076Z,28.20
2023-01-18T04:41:23.082Z,27.52
2023-01-18T04:43:51.740Z,30.02
2023-01-18T04:46:20.929Z,30.02
2023-01-18T04:48:53.592Z,27.45
2023-01-18T04:51:24.092Z,26.73
2023-01-18T04:53:55.138Z,29.67
2023-01-18T04:56:24.112Z,25.48
2023-01-18T04:58:54.684Z,27.10
2023-01-18T05:01:24.296Z,32.85
2023-01-18T05:03:54.223Z,29.02
2023-01-18T05:06:24.208Z,32.83
2023-01-18T05:08:54.689Z,33.45
2023-01-18T05:11:23.886Z,33.75
2023-01-18T05:13:52.578Z,38.10
2023-01-18T05:16:23.046Z,36.50
2023-01-18T05:18:52.050Z,36.67
2023-01-18T05:21:21.291Z,38.47
2023-01-18T05:23:50.253Z,36.00
2023-01-18T05:26:22.644Z,39.55
2023-01-18T05:28:52.065Z,42.15
2023-01-18T05:31:21.438Z,34.33
2023-01-18T05:33:50.765Z,43.63
2023-01-18T05:36:19.767Z,37.10
2023-01-18T05:38:48.987Z,39.65
2023-01-18T05:41:18.068Z,41.33
2023-01-18T05:43:48.127Z,40.25
2023-01-18T05:46:17.099Z,36.33
2023-01-18T05:48:46.052Z,34.63
2023-01-18T05:51:15.275Z,37.47
2023-01-18T05:53:44.192Z,42.85
2023-01-18T05:56:13.295Z,34.17
2023-01-18T05:58:41.827Z,34.17
2023-01-18T06:01:12.292Z,35.10
2023-01-18T06:03:41.994Z,43.97
2023-01-18T06:06:10.975Z,29.98
2023-01-18T06:08:39.983Z,32.45
2023-01-18T06:11:08.973Z,30.08
2023-01-18T06:13:37.599Z,34.47
2023-01-18T06:16:07.476Z,26.48
2023-01-18T06:18:39.654Z,31.45
2023-01-18T06:21:10.867Z,28.67
2023-01-18T06:23:40.105Z,26.02
2023-01-18T06:26:09.109Z,30.02
2023-01-18T06:28:37.769Z,29.65
2023-01-18T06:31:08.506Z,29.30
2023-01-18T06:33:39.206Z,30.08
2023-01-18T06:36:08.746Z,20.75
2023-01-18T06:38:37.752Z,26.53
2023-01-18T06:41:07.250Z,23.95
2023-01-18T06:43:35.882Z,27.25
2023-01-18T06:46:07.836Z,25.05
2023-01-18T06:48:38.757Z,33.30
2023-01-18T06:51:07.705Z,27.75
2023-01-18T06:53:37.948Z,28.02
2023-01-18T06:58:39.286Z,27.17
2023-01-18T07:01:08.771Z,25.67
2023-01-18T07:03:40.327Z,27.85
2023-01-18T07:06:09.624Z,30.88
2023-01-18T07:08:40.353Z,22.58
2023-01-18T07:11:11.214Z,24.83
2023-01-18T07:13:43.564Z,28.30
2023-01-18T07:16:18.205Z,28.08
2023-01-18T07:18:49.885Z,26.73
2023-01-18T07:21:20.335Z,26.02
2023-01-18T07:23:49.355Z,22.70
2023-01-18T07:26:18.784Z,21.58
2023-01-18T07:28:48.104Z,20.55
2023-01-18T07:31:18.079Z,22.88
2023-01-18T07:33:48.611Z,25.60
2023-01-18T07:36:17.828Z,19.90
2023-01-18T07:38:47.345Z,21.90
2023-01-18T07:41:18.535Z,19.35
2023-01-18T07:43:47.361Z,20.17
2023-01-18T07:46:18.852Z,19.83
2023-01-18T07:48:49.861Z,19.85
2023-01-18T07:51:18.844Z,22.23
2023-01-18T07:53:47.847Z,16.83
2023-01-18T07:56:18.582Z,17.27
2023-01-18T08:01:18.023Z,14.10
2023-01-18T08:03:49.453Z,16.52
2023-01-18T08:06:21.891Z,24.20
2023-01-18T08:08:50.904Z,16.83
2023-01-18T08:11:20.566Z,15.50
2023-01-18T08:13:50.661Z,15.30
2023-01-18T08:16:20.146Z,15.60
2023-01-18T08:18:52.123Z,16.30
2023-01-18T08:21:21.190Z,16.83
2023-01-18T08:23:51.481Z,17.50
2023-01-18T08:26:20.853Z,18.48
2023-01-18T08:28:49.824Z,17.75
2023-01-18T08:31:20.985Z,21.10
2023-01-18T08:33:53.017Z,17.23
2023-01-18T08:36:24.869Z,17.65
2023-01-18T08:38:55.850Z,19.42
2023-01-18T08:41:28.798Z,20.60
2023-01-18T08:43:57.993Z,14.18
2023-01-18T08:46:27.718Z,17.10
2023-01-18T08:48:59.226Z,16.17
2023-01-18T08:51:28.344Z,14.80
2023-01-18T08:53:57.524Z,18.17
2023-01-18T08:56:27.109Z,13.73
2023-01-18T08:58:55.985Z,14.95
2023-01-18T09:01:25.856Z,15.98
2023-01-18T09:03:55.810Z,16.23
2023-01-18T09:06:32.100Z,13.02
2023-01-18T09:09:01.693Z,16.58
2023-01-18T09:11:30.747Z,14.13
2023-01-18T09:14:02.263Z,12.77
2023-01-18T09:16:31.805Z,12.43
2023-01-18T09:19:01.579Z,13.23
2023-01-18T09:21:32.159Z,12.98
2023-01-18T09:24:01.203Z,16.58
2023-01-18T09:26:30.704Z,16.17
2023-01-18T09:28:59.857Z,8.85
2023-01-18T09:31:30.889Z,12.18
2023-01-18T09:34:17.951Z,13.23
2023-01-18T09:36:51.360Z,14.07
2023-01-18T09:39:20.415Z,11.90
2023-01-18T09:41:53.818Z,10.88
2023-01-18T09:44:25.919Z,14.90
2023-01-18T09:46:57.981Z,9.88
2023-01-18T09:49:34.482Z,13.00
2023-01-18T09:52:15.315Z,9.05
2023-01-18T09:54:48.552Z,12.80
2023-01-18T09:57:28.293Z,10.27
2023-01-18T09:59:59.176Z,7.07
2023-01-18T10:02:36.196Z,10.07
2023-01-18T10:05:08.100Z,9.82
2023-01-18T10:07:45.774Z,7.35
2023-01-18T10:10:19.114Z,7.03
2023-01-18T10:12:53.163Z,6.93
2023-01-18T10:15:23.702Z,8.00
2023-01-18T10:17:56.377Z,6.93
2023-01-18T10:20:30.210Z,10.30
2023-01-18T10:23:04.624Z,8.48
2023-01-18T10:25:34.564Z,6.93
2023-01-18T10:28:14.187Z,7.43
2023-01-18T10:30:51.785Z,5.82
2023-01-18T10:33:23.214Z,6.18
2023-01-18T10:35:54.493Z,6.88
2023-01-18T10:38:27.276Z,7.30
2023-01-18T10:40:58.993Z,6.20
2023-01-18T10:43:30.192Z,10.82
2023-01-18T10:45:59.582Z,6.50
2023-01-18T10:48:31.509Z,12.13
2023-01-18T10:51:02.319Z,10.45
2023-01-18T10:53:35.324Z,6.28
2023-01-18T10:56:06.867Z,10.05
2023-01-18T10:58:43.099Z,7.53
2023-01-18T11:01:15.469Z,7.72
2023-01-18T11:03:47.648Z,10.90
2023-01-18T11:06:17.549Z,11.68
2023-01-18T11:08:48.993Z,8.05
2023-01-18T11:11:20.348Z,7.22
2023-01-18T11:13:50.620Z,7.15
2023-01-18T11:16:21.185Z,6.78
2023-01-18T11:18:58.078Z,6.05
2023-01-18T11:21:30.720Z,7.63
2023-01-18T11:24:07.777Z,6.80
2023-01-18T11:26:37.033Z,6.53
2023-01-18T11:29:07.943Z,6.63
2023-01-18T11:31:46.188Z,8.98
2023-01-18T11:34:24.813Z,7.90
2023-01-18T11:36:53.977Z,14.52
2023-01-18T11:39:33.016Z,8.73
2023-01-18T11:42:24.507Z,7.57
2023-01-18T11:45:05.899Z,7.15
2023-01-18T11:47:42.267Z,7.63
2023-01-18T11:50:22.492Z,8.02
2023-01-18T11:52:53.948Z,7.15
2023-01-18T11:55:31.505Z,7.65
2023-01-18T11:58:02.246Z,6.82
2023-01-18T12:00:38.894Z,8.50
2023-01-18T12:03:22.760Z,8.63
2023-01-18T12:05:55.122Z,8.68
2023-01-18T12:08:51.103Z,11.48
2023-01-18T12:11:34.609Z,8.93
2023-01-18T12:14:13.573Z,8.82
2023-01-18T12:17:09.299Z,9.43
2023-01-18T12:19:53.910Z,9.63
2023-01-18T12:22:37.727Z,9.13
2023-01-18T12:25:27.612Z,9.65
2023-01-18T12:28:02.256Z,10.27
2023-01-18T12:30:42.093Z,11.20
2023-01-18T12:33:19.277Z,9.10
2023-01-18T12:36:01.750Z,9.52
2023-01-18T12:38:33.563Z,6.15
2023-01-18T12:41:32.916Z,6.30
2023-01-18T12:44:18.356Z,6.45
2023-01-18T12:46:54.715Z,5.30
2023-01-18T12:49:23.910Z,8.07
2023-01-18T12:52:03.124Z,9.90
2023-01-18T12:54:47.468Z,7.10
2023-01-18T12:57:17.442Z,8.25
2023-01-18T12:59:54.130Z,7.25
2023-01-18T13:02:28.147Z,8.40
2023-01-18T13:04:59.622Z,7.68
2023-01-18T13:07:32.499Z,8.43
2023-01-18T13:10:02.041Z,7.47
2023-01-18T13:12:31.207Z,8.35
2023-01-18T13:15:06.536Z,8.73
2023-01-18T13:17:40.421Z,11.25
2023-01-18T13:20:17.527Z,13.52
2023-01-18T13:22:52.813Z,11.02
2023-01-18T13:25:42.346Z,9.50
2023-01-18T13:28:18.609Z,11.80
2023-01-18T13:30:56.535Z,10.18
2023-01-18T13:33:27.175Z,12.77
2023-01-18T13:35:57.983Z,14.38
2023-01-18T13:38:40.822Z,11.25
2023-01-18T13:41:12.045Z,10.65
2023-01-18T13:44:03.038Z,12.18
2023-01-18T13:46:36.818Z,12.68
2023-01-18T13:49:38.705Z,17.00
2023-01-18T13:52:32.033Z,19.00
2023-01-18T13:55:09.782Z,18.80
2023-01-18T13:57:39.012Z,17.85
2023-01-18T14:00:24.681Z,13.27
2023-01-18T14:03:04.183Z,19.05
2023-01-18T14:05:38.035Z,18.80
2023-01-18T14:08:07.723Z,21.00
2023-01-18T14:10:38.231Z,19.35
2023-01-18T14:13:09.340Z,15.95
2023-01-18T14:15:49.879Z,19.05
2023-01-18T14:18:24.235Z,17.73
2023-01-18T14:21:07.064Z,19.75
2023-01-18T14:24:06.240Z,14.63
2023-01-18T14:26:37.064Z,15.82
2023-01-18T14:29:08.512Z,16.20
2023-01-18T14:31:39.966Z,13.65
2023-01-18T14:34:37.385Z,17.90
2023-01-18T14:37:26.476Z,16.33
2023-01-18T14:40:23.390Z,20.65
2023-01-18T14:42:55.097Z,20.33
2023-01-18T14:45:27.573Z,18.38
2023-01-18T14:47:57.921Z,24.35
2023-01-18T14:50:32.205Z,18.08
2023-01-18T14:53:01.719Z,20.05
2023-01-18T14:55:32.683Z,17.00
2023-01-18T14:58:11.984Z,21.27
2023-01-18T15:00:45.560Z,25.55
2023-01-18T15:03:19.744Z,23.85
2023-01-18T15:05:52.479Z,23.30
2023-01-18T15:08:21.758Z,27.67
2023-01-18T15:10:50.690Z,27.55
2023-01-18T15:13:20.486Z,30.57
2023-01-18T15:15:50.599Z,24.30
2023-01-18T15:20:57.918Z,28.05
2023-01-18T15:23:27.983Z,29.38
2023-01-18T15:25:57.637Z,25.08
2023-01-18T15:28:31.988Z,17.40
2023-01-18T15:31:01.513Z,21.10
2023-01-18T15:33:37.919Z,22.75
2023-01-18T15:36:10.039Z,21.58
2023-01-18T15:38:39.279Z,25.65
2023-01-18T15:41:11.104Z,18.50
2023-01-18T15:43:43.047Z,20.85
2023-01-18T15:46:14.122Z,21.40
2023-01-18T15:48:48.772Z,18.67
2023-01-18T15:51:22.515Z,21.15
2023-01-18T15:53:56.433Z,23.58
2023-01-18T15:56:27.565Z,26.70
2023-01-18T15:58:57.196Z,30.77
2023-01-18T16:01:29.285Z,32.75
2023-01-18T16:04:00.142Z,35.10
2023-01-18T16:06:37.232Z,39.60
2023-01-18T16:09:11.807Z,41.33
2023-01-18T16:11:46.623Z,42.55
2023-01-18T16:14:24.934Z,40.80
2023-01-18T16:16:55.222Z,39.60
2023-01-18T16:19:28.645Z,42.17
2023-01-18T16:22:00.786Z,47.85
2023-01-18T16:24:35.491Z,37.78
2023-01-18T16:27:11.285Z,42.03
2023-01-18T16:29:43.918Z,38.58
2023-01-18T16:32:33.717Z,46.40
2023-01-18T16:35:04.691Z,46.88
2023-01-18T16:37:37.504Z,62.42
2023-01-18T16:40:09.042Z,56.35
2023-01-18T16:42:56.574Z,55.92
2023-01-18T16:45:25.903Z,60.92
2023-01-18T16:47:54.855Z,52.15
2023-01-18T16:50:24.159Z,55.08
2023-01-18T16:52:54.452Z,58.92
2023-01-18T16:55:23.972Z,68.20
2023-01-18T16:57:53.159Z,54.70
2023-01-18T17:00:23.995Z,58.40
2023-01-18T17:02:53.710Z,66.38
2023-01-18T17:05:22.836Z,59.00
2023-01-18T17:07:52.819Z,53.70
2023-01-18T17:10:28.172Z,45.60
2023-01-18T17:12:58.302Z,54.83
2023-01-18T17:15:28.409Z,50.75
2023-01-18T17:17:57.616Z,55.33
2023-01-18T17:20:28.021Z,56.22
2023-01-18T17:22:57.265Z,56.75
2023-01-18T17:25:28.177Z,51.38
2023-01-18T17:27:57.583Z,52.92
2023-01-18T17:30:27.086Z,54.73
2023-01-18T17:32:56.625Z,60.85
2023-01-18T17:35:27.936Z,56.13
2023-01-18T17:38:05.139Z,70.65
2023-01-18T17:40:44.344Z,60.55
2023-01-18T17:43:17.220Z,65.55
2023-01-18T17:45:58.726Z,49.67
2023-01-18T17:48:30.644Z,53.78
2023-01-18T17:50:59.816Z,68.73
2023-01-18T17:53:29.059Z,65.78
2023-01-18T17:55:59.226Z,61.72
2023-01-18T17:58:28.335Z,68.00
2023-01-18T18:00:57.376Z,60.20
2023-01-18T18:03:26.474Z,65.32
2023-01-18T18:05:59.589Z,61.08
2023-01-18T18:08:28.622Z,69.97
2023-01-18T18:10:59.977Z,63.80
2023-01-18T18:13:29.166Z,61.40
2023-01-18T18:15:58.300Z,58.72
2023-01-18T18:18:27.376Z,63.25
2023-01-18T18:20:58.697Z,59.10
2023-01-18T18:23:27.810Z,54.33
2023-01-18T18:25:58.381Z,55.00
2023-01-18T18:28:29.604Z,64.90
2023-01-18T18:30:59.119Z,61.17
2023-01-18T18:33:29.460Z,65.05
2023-01-18T18:38:27.860Z,63.35
2023-01-18T18:41:03.817Z,60.33
2023-01-18T18:43:33.256Z,72.50
2023-01-18T18:46:02.706Z,76.47
2023-01-18T18:48:32.176Z,69.05
2023-01-18T18:51:01.319Z,69.83
2023-01-18T18:53:38.477Z,70.03
2023-01-18T18:56:10.782Z,76.25
2023-01-18T18:58:39.859Z,71.25
2023-01-18T19:01:09.838Z,80.38
2023-01-18T19:03:38.882Z,72.68
2023-01-18T19:06:08.580Z,66.90
2023-01-18T19:08:37.749Z,90.57
2023-01-18T19:11:07.239Z,93.10
2023-01-18T19:13:37.721Z,86.10
2023-01-18T19:16:07.466Z,88.53
2023-01-18T19:18:36.884Z,85.50
2023-01-18T19:21:06.536Z,91.78
2023-01-18T19:23:35.575Z,81.45
2023-01-18T19:26:04.636Z,82.25
2023-01-18T19:28:33.326Z,85.68
2023-01-18T19:31:05.196Z,89.95
2023-01-18T19:33:34.418Z,88.20
2023-01-18T19:36:09.160Z,85.90
2023-01-18T19:38:45.705Z,81.75
2023-01-18T19:41:15.950Z,86.32
2023-01-18T19:43:44.641Z,81.30
2023-01-18T19:46:15.612Z,92.10
2023-01-18T19:48:45.028Z,86.25
2023-01-18T19:51:22.148Z,83.22
2023-01-18T19:53:53.096Z,86.53
2023-01-18T19:58:50.923Z,63.47
2023-01-18T20:01:35.329Z,73.30
2023-01-18T20:04:06.163Z,76.13
2023-01-18T20:06:37.591Z,74.05
2023-01-18T20:09:18.468Z,76.95
2023-01-18T20:11:48.739Z,61.08
2023-01-18T20:14:18.470Z,65.47
2023-01-18T20:16:48.879Z,66.43
2023-01-18T20:19:19.382Z,72.47
2023-01-18T20:21:48.779Z,67.43
2023-01-18T20:24:18.022Z,59.55
2023-01-18T20:26:47.083Z,63.85
2023-01-18T20:29:16.439Z,62.78
2023-01-18T20:31:50.091Z,63.50
2023-01-18T20:34:21.026Z,50.97
2023-01-18T20:36:50.991Z,57.70
2023-01-18T20:39:20.641Z,53.88
2023-01-18T20:41:50.362Z,46.60
2023-01-18T20:44:19.416Z,57.13
2023-01-18T20:46:48.411Z,59.42
2023-01-18T20:49:22.491Z,57.13
2023-01-18T20:51:57.750Z,61.05
2023-01-18T20:54:26.849Z,60.35
2023-01-18T20:56:55.862Z,55.28
2023-01-18T20:59:25.163Z,61.15
2023-01-18T21:01:54.198Z,60.13
2023-01-18T21:04:23.466Z,56.72
2023-01-18T21:06:52.563Z,64.45
2023-01-18T21:09:23.224Z,63.10
2023-01-18T21:11:52.322Z,70.22
2023-01-18T21:14:21.436Z,70.18
2023-01-18T21:16:50.145Z,63.80
2023-01-18T21:19:19.380Z,61.08
2023-01-18T21:21:48.568Z,67.03
2023-01-18T21:24:17.784Z,67.65
2023-01-18T21:26:48.317Z,63.95
2023-01-18T21:29:17.745Z,60.25
2023-01-18T21:31:46.935Z,59.70
2023-01-18T21:34:16.108Z,59.50
2023-01-18T21:36:45.276Z,66.38
2023-01-18T21:39:18.526Z,58.38
2023-01-18T21:42:06.737Z,61.25
2023-01-18T21:44:53.120Z,63.95
2023-01-18T21:47:23.130Z,58.53
2023-01-18T21:50:17.556Z,57.80
2023-01-18T21:53:04.783Z,61.00
2023-01-18T21:55:41.568Z,66.95
2023-01-18T21:58:29.297Z,67.70
2023-01-18T22:01:01.327Z,75.03
2023-01-18T22:03:30.425Z,67.10
2023-01-18T22:06:02.418Z,62.75
2023-01-18T22:08:31.477Z,62.90
2023-01-18T22:11:00.679Z,51.20
2023-01-18T22:13:30.854Z,62.97
2023-01-18T22:16:06.692Z,60.35
2023-01-18T22:18:35.678Z,59.50
2023-01-18T22:21:04.945Z,59.15
2023-01-18T22:23:34.648Z,57.00
2023-01-18T22:26:03.912Z,45.55
2023-01-18T22:28:34.019Z,59.40
2023-01-18T22:31:06.665Z,55.45
2023-01-18T22:33:35.791Z,62.55
2023-01-18T22:36:05.305Z,60.97
2023-01-18T22:38:34.479Z,63.60
2023-01-18T22:41:03.754Z,52.50
2023-01-18T22:43:34.322Z,57.05
2023-01-18T22:46:04.812Z,62.47
2023-01-18T22:48:36.295Z,62.50
2023-01-18T22:51:07.406Z,63.40
2023-01-18T22:53:36.866Z,60.22
2023-01-18T22:56:07.766Z,58.13
2023-01-18T22:58:38.487Z,59.00
2023-01-18T23:01:15.708Z,59.50
2023-01-18T23:03:47.349Z,63.50
2023-01-18T23:06:16.716Z,57.90
2023-01-18T23:08:46.057Z,60.73
2023-01-18T23:11:17.286Z,60.72
2023-01-18T23:14:10.264Z,57.00
2023-01-18T23:16:57.426Z,59.30
2023-01-18T23:19:28.847Z,59.40
2023-01-18T23:21:58.773Z,63.50
2023-01-18T23:24:28.349Z,64.22
2023-01-18T23:26:57.340Z,64.45
2023-01-18T23:29:27.919Z,62.20
2023-01-18T23:34:27.533Z,65.57
2023-01-18T23:36:56.609Z,74.57
2023-01-18T23:39:43.092Z,69.90
2023-01-18T23:42:29.525Z,69.20
2023-01-18T23:45:17.394Z,70.30
2023-01-18T23:48:04.077Z,72.00
2023-01-18T23:50:50.404Z,64.32
2023-01-18T23:53:36.482Z,65.50
2023-01-18T23:56:05.133Z,67.50
2023-01-18T23:58:34.115Z,68.35
